Time;durP1;ratioP1;P1;durP2;ratioP2;P2;SDS_P1;SDS_P2;PMS_P1;PMS_P2;Temp;Humidity;BMP_temperature;BMP_pressure;BME280_temperature;BME280_humidity;BME280_pressure;Samples;Min_cycle;Max_cycle;Signal;HPM_P1;HPM_P2
2023/01/03 00:01:24;;;;;;;8.02;1.98;;;5.00;99.90;;;;;;5018776;28;20058;-79
2023/01/03 00:03:52;;;;;;;15.68;2.45;;;4.20;99.90;;;;;;4975584;28;20506;-78
2023/01/03 00:06:23;;;;;;;6.30;1.73;;;4.20;99.90;;;;;;5016068;28;20086;-79
2023/01/03 00:08:49;;;;;;;6.40;1.40;;;4.10;99.90;;;;;;5015753;28;20065;-78
2023/01/03 00:12:22;;;;;;;8.80;1.90;;;4.10;99.90;;;;;;5000838;28;20042;-78
2023/01/03 00:14:12;;;;;;;7.03;2.00;;;4.10;99.90;;;;;;4982588;28;20887;-78
2023/01/03 00:16:38;;;;;;;6.55;1.88;;;4.10;99.90;;;;;;4985665;28;20046;-78
2023/01/03 00:19:11;;;;;;;12.50;2.08;;;4.10;99.90;;;;;;5018880;28;20496;-76
2023/01/03 00:21:37;;;;;;;9.05;2.35;;;4.10;99.90;;;;;;5015967;28;20038;-78
2023/01/03 00:24:04;;;;;;;5.28;1.45;;;4.10;99.90;;;;;;5013764;28;20100;-78
2023/01/03 00:26:30;;;;;;;4.07;1.77;;;4.10;99.90;;;;;;4976074;28;20034;-78
2023/01/03 00:28:56;;;;;;;7.00;1.70;;;5.30;99.90;;;;;;4984174;28;20498;-78
2023/01/03 00:31:21;;;;;;;8.10;1.90;;;4.10;99.90;;;;;;5001291;28;20110;-79
2023/01/03 00:33:47;;;;;;;11.15;2.42;;;5.80;99.90;;;;;;5002549;28;20050;-79
2023/01/03 00:36:13;;;;;;;9.45;1.60;;;5.80;99.90;;;;;;4968760;28;20073;-78
2023/01/03 00:38:38;;;;;;;11.07;1.80;;;4.10;99.90;;;;;;5002298;28;20045;-78
2023/01/03 00:41:09;;;;;;;6.35;2.03;;;4.50;99.90;;;;;;4983042;28;20050;-78
2023/01/03 00:43:36;;;;;;;7.53;1.88;;;4.20;99.90;;;;;;4999563;28;20034;-78
2023/01/03 00:46:03;;;;;;;9.40;2.10;;;4.20;99.90;;;;;;4998090;28;20062;-78
2023/01/03 00:48:29;;;;;;;8.80;2.67;;;4.50;99.90;;;;;;5015487;28;20039;-77
2023/01/03 00:50:55;;;;;;;7.22;2.00;;;4.20;99.90;;;;;;4974256;28;20092;-77
2023/01/03 00:53:22;;;;;;;8.30;2.10;;;5.10;99.90;;;;;;4997367;28;20084;-78
2023/01/03 00:55:48;;;;;;;6.70;1.90;;;4.10;99.90;;;;;;4966010;28;20047;-77
2023/01/03 00:58:14;;;;;;;7.38;2.28;;;4.10;99.90;;;;;;4991039;28;20045;-78
2023/01/03 01:00:40;;;;;;;5.65;1.75;;;4.10;99.90;;;;;;4998163;28;20510;-78
2023/01/03 01:03:06;;;;;;;3.03;1.75;;;4.10;99.90;;;;;;4992464;28;20057;-78
2023/01/03 01:05:32;;;;;;;5.97;1.70;;;4.10;99.90;;;;;;4990618;28;20399;-77
2023/01/03 01:07:58;;;;;;;7.50;1.77;;;4.10;99.90;;;;;;4976978;28;20049;-78
2023/01/03 01:10:24;;;;;;;6.35;1.77;;;4.10;99.90;;;;;;5007731;28;20065;-78
2023/01/03 01:12:54;;;;;;;7.38;2.28;;;4.00;99.90;;;;;;5011469;28;20053;-78
2023/01/03 01:15:20;;;;;;;6.22;2.10;;;4.00;99.90;;;;;;4990540;28;20046;-78
2023/01/03 01:17:46;;;;;;;7.90;2.80;;;4.10;99.90;;;;;;4973007;28;20041;-77
2023/01/03 01:20:12;;;;;;;8.13;2.40;;;4.00;99.90;;;;;;4973611;28;20043;-77
2023/01/03 01:22:38;;;;;;;5.32;2.17;;;5.30;99.90;;;;;;4974863;28;20705;-77
2023/01/03 01:25:04;;;;;;;9.18;2.58;;;5.30;99.90;;;;;;4989195;28;20065;-78
2023/01/03 01:27:30;;;;;;;4.55;2.58;;;4.00;99.90;;;;;;4978436;28;20042;-78
2023/01/03 01:29:56;;;;;;;6.43;2.50;;;4.00;99.90;;;;;;4975037;28;20453;-78
2023/01/03 01:32:22;;;;;;;3.90;1.75;;;4.80;99.90;;;;;;4975392;28;20046;-78
2023/01/03 01:34:47;;;;;;;7.25;2.67;;;5.20;99.90;;;;;;4976230;28;21559;-77
2023/01/03 01:37:13;;;;;;;5.97;2.45;;;4.00;99.90;;;;;;4972495;28;20049;-78
2023/01/03 01:39:39;;;;;;;14.40;2.80;;;5.40;99.90;;;;;;4989953;28;20042;-78
2023/01/03 01:45:04;;;;;;;7.35;2.22;;;2.50;99.90;;;;;;5007580;28;20224;-78
2023/01/03 01:47:37;;;;;;;5.95;2.47;;;4.00;99.90;;;;;;4989399;28;20133;-77
2023/01/03 01:50:14;;;;;;;7.20;2.20;;;5.50;99.90;;;;;;5004881;28;20050;-78
2023/01/03 01:52:58;;;;;;;4.35;2.22;;;4.10;99.90;;;;;;4975498;28;20050;-77
2023/01/03 01:55:29;;;;;;;6.13;2.42;;;4.10;99.90;;;;;;5005945;28;20046;-78
2023/01/03 01:57:55;;;;;;;7.57;3.17;;;4.10;99.90;;;;;;4992757;28;20498;-78
2023/01/03 02:00:21;;;;;;;6.93;2.08;;;2.80;99.90;;;;;;4974811;28;20077;-78
2023/01/03 02:02:51;;;;;;;8.40;2.10;;;4.10;99.90;;;;;;4975137;28;20047;-78
2023/01/03 02:05:18;;;;;;;8.35;2.13;;;4.20;99.90;;;;;;4994159;28;20117;-78
2023/01/03 02:07:50;;;;;;;9.00;2.10;;;4.10;99.90;;;;;;4965944;28;20042;-78
2023/01/03 02:10:20;;;;;;;6.18;2.17;;;4.10;99.90;;;;;;5011456;28;20050;-78
2023/01/03 02:13:07;;;;;;;8.20;2.05;;;4.10;99.90;;;;;;4990310;28;20081;-78
2023/01/03 02:15:51;;;;;;;6.88;2.03;;;4.10;99.90;;;;;;5013315;28;20568;-78
2023/01/03 02:18:38;;;;;;;4.35;1.98;;;4.10;99.90;;;;;;4990951;28;20530;-78
2023/01/03 02:21:13;;;;;;;4.25;2.13;;;4.10;99.90;;;;;;4979833;28;20069;-77
2023/01/03 02:23:48;;;;;;;7.93;1.83;;;4.50;99.90;;;;;;4990515;28;20089;-77
2023/01/03 02:26:41;;;;;;;7.78;1.92;;;4.10;99.90;;;;;;4982047;28;20140;-77
2023/01/03 02:29:22;;;;;;;5.03;1.85;;;4.00;99.90;;;;;;4988525;28;20129;-78
2023/01/03 02:31:57;;;;;;;11.00;2.25;;;4.00;99.90;;;;;;4987546;28;20482;-78
2023/01/03 02:34:47;;;;;;;11.13;1.90;;;4.60;99.90;;;;;;5013222;28;20050;-78
2023/01/03 02:37:18;;;;;;;9.20;2.60;;;4.00;99.90;;;;;;4980474;28;20133;-79
2023/01/03 02:40:05;;;;;;;6.38;2.42;;;4.00;99.90;;;;;;4980770;28;20049;-78
2023/01/03 02:45:35;;;;;;;6.03;3.03;;;4.00;99.90;;;;;;5007297;28;20438;-78
2023/01/03 02:48:13;;;;;;;7.22;2.17;;;4.00;99.90;;;;;;5012896;28;20498;-78
2023/01/03 02:50:47;;;;;;;6.07;2.03;;;3.90;99.90;;;;;;4989522;28;20054;-78
2023/01/03 02:53:24;;;;;;;6.88;1.83;;;3.90;99.90;;;;;;4996369;28;20062;-79
2023/01/03 02:55:53;;;;;;;5.05;2.00;;;3.90;99.90;;;;;;4976795;28;20050;-78
2023/01/03 02:58:24;;;;;;;8.65;2.65;;;3.80;99.90;;;;;;5013018;28;20034;-77
2023/01/03 03:00:54;;;;;;;4.68;1.90;;;3.80;99.90;;;;;;4996504;28;20177;-78
2023/01/03 03:03:25;;;;;;;7.72;2.30;;;3.80;99.90;;;;;;5012200;28;20042;-78
2023/01/03 03:06:10;;;;;;;12.77;2.50;;;3.70;99.90;;;;;;4989011;28;20050;-78
2023/01/03 03:08:36;;;;;;;3.13;1.98;;;3.70;99.90;;;;;;4988663;28;20042;-78
2023/01/03 03:14:05;;;;;;;3.78;2.03;;;5.00;99.90;;;;;;4976410;28;20538;-78
2023/01/03 03:16:48;;;;;;;7.63;2.20;;;3.60;99.90;;;;;;4979837;28;20064;-78
2023/01/03 03:25:33;;;;;;;6.05;1.95;;;4.30;99.90;;;;;;5004792;28;20513;-78
2023/01/03 03:30:53;;;;;;;6.43;1.95;;;3.40;99.90;;;;;;5008715;28;20112;-77
2023/01/03 03:33:23;;;;;;;7.82;2.33;;;3.40;99.90;;;;;;5012095;28;20093;-78
2023/01/03 03:36:13;;;;;;;3.83;1.98;;;3.40;99.90;;;;;;4989787;28;20050;-77
2023/01/03 03:38:42;;;;;;;5.75;2.50;;;3.30;99.90;;;;;;4995508;28;20042;-77
2023/01/03 03:47:37;;;;;;;5.43;2.05;;;3.30;99.90;;;;;;4978881;28;20137;-80
2023/01/03 03:50:13;;;;;;;7.53;2.30;;;3.20;99.90;;;;;;4979337;28;20482;-77
2023/01/03 03:52:44;;;;;;;9.05;2.88;;;3.20;99.90;;;;;;5011774;28;20121;-77
2023/01/03 03:55:21;;;;;;;7.70;2.20;;;3.20;99.90;;;;;;5011539;28;20413;-78
2023/01/03 03:57:55;;;;;;;10.65;2.13;;;3.20;99.90;;;;;;5012491;28;20065;-77
2023/01/03 04:00:25;;;;;;;8.18;2.22;;;3.20;99.90;;;;;;4988648;28;20121;-78
2023/01/03 04:02:52;;;;;;;9.23;2.33;;;3.10;99.90;;;;;;5012227;28;20042;-78
2023/01/03 04:05:21;;;;;;;5.93;2.20;;;3.10;99.90;;;;;;4995718;28;20444;-78
2023/01/03 04:07:48;;;;;;;9.32;2.40;;;4.40;99.90;;;;;;5009139;28;20050;-77
2023/01/03 04:10:18;;;;;;;6.97;2.63;;;4.00;99.90;;;;;;5011965;28;20054;-76
2023/01/03 04:12:46;;;;;;;9.57;3.28;;;3.10;99.90;;;;;;5009078;28;20096;-77
2023/01/03 04:15:12;;;;;;;8.02;2.42;;;3.20;99.90;;;;;;4995065;28;20050;-77
2023/01/03 04:17:38;;;;;;;5.88;2.47;;;3.00;99.90;;;;;;5012458;28;20478;-76
2023/01/03 04:20:04;;;;;;;7.80;2.90;;;3.00;99.90;;;;;;4979133;28;20050;-77
2023/01/03 04:22:29;;;;;;;6.57;2.60;;;3.00;99.90;;;;;;4988564;28;20042;-77
2023/01/03 04:24:55;;;;;;;6.95;3.20;;;2.90;99.90;;;;;;4988641;28;20045;-77
2023/01/03 04:27:21;;;;;;;9.07;3.05;;;2.90;99.90;;;;;;4982237;28;20510;-76
2023/01/03 04:29:47;;;;;;;7.57;4.05;;;2.90;99.90;;;;;;4985219;28;20054;-77
2023/01/03 04:32:12;;;;;;;13.05;3.65;;;2.90;99.90;;;;;;4993279;28;20129;-77
2023/01/03 04:34:38;;;;;;;7.57;3.83;;;2.90;99.90;;;;;;4982481;28;20138;-77
2023/01/03 04:37:04;;;;;;;9.35;4.20;;;2.90;99.90;;;;;;4966473;28;20042;-77
2023/01/03 04:39:29;;;;;;;10.32;4.68;;;2.60;99.90;;;;;;4983017;28;20440;-77
2023/01/03 04:41:55;;;;;;;9.48;4.68;;;2.90;99.90;;;;;;5014439;28;20631;-77
2023/01/03 04:44:21;;;;;;;11.75;5.30;;;3.80;99.90;;;;;;4995361;28;21142;-77
2023/01/03 04:46:46;;;;;;;12.43;6.10;;;2.90;99.90;;;;;;5018843;28;20053;-77
2023/01/03 04:49:12;;;;;;;11.88;6.85;;;3.00;99.90;;;;;;5014260;28;20061;-77
2023/01/03 04:51:37;;;;;;;7.85;6.22;;;2.90;99.90;;;;;;5015676;28;20090;-77
2023/01/03 04:54:05;;;;;;;13.43;6.70;;;4.60;99.90;;;;;;5016412;28;20237;-78
2023/01/03 04:56:33;;;;;;;13.57;7.07;;;3.80;99.90;;;;;;5001856;28;20454;-77
2023/01/03 04:59:00;;;;;;;12.50;7.65;;;2.90;99.90;;;;;;5000695;28;20046;-77
2023/01/03 05:01:26;;;;;;;14.05;7.00;;;2.90;99.90;;;;;;4999641;28;20042;-77
2023/01/03 05:03:57;;;;;;;16.33;7.97;;;2.90;99.90;;;;;;4993511;28;20035;-77
2023/01/03 05:06:23;;;;;;;13.38;8.52;;;2.90;99.90;;;;;;5018099;28;20050;-77
2023/01/03 05:08:49;;;;;;;17.42;8.20;;;2.90;99.90;;;;;;5000826;28;20042;-77
2023/01/03 05:11:15;;;;;;;15.32;8.80;;;3.00;99.90;;;;;;5015818;28;20170;-77
2023/01/03 05:13:41;;;;;;;13.30;8.75;;;3.00;99.90;;;;;;4999404;28;20062;-77
2023/01/03 05:16:09;;;;;;;13.25;8.25;;;2.90;99.90;;;;;;5015936;28;20092;-76
2023/01/03 05:18:35;;;;;;;12.98;7.60;;;2.90;99.90;;;;;;5017350;28;20034;-76
2023/01/03 05:26:45;;;;;;;17.90;9.90;;;3.40;99.90;;;;;;5017755;28;20510;-76
2023/01/03 05:29:14;;;;;;;16.48;9.38;;;3.00;99.90;;;;;;4998347;28;20502;-76
2023/01/03 05:31:40;;;;;;;18.70;10.20;;;3.00;99.90;;;;;;5013713;28;20034;-77
2023/01/03 05:34:06;;;;;;;17.73;10.07;;;3.10;99.90;;;;;;5014870;28;20410;-77
2023/01/03 05:36:31;;;;;;;15.32;9.52;;;3.10;99.90;;;;;;5002400;28;20034;-77
2023/01/03 05:38:57;;;;;;;14.20;9.27;;;3.10;99.90;;;;;;4983183;28;20085;-77
2023/01/03 05:44:07;;;;;;;12.25;9.18;;;3.10;99.90;;;;;;5013666;28;20471;-78
2023/01/03 05:46:33;;;;;;;19.08;9.88;;;3.10;99.90;;;;;;4990524;28;20129;-77
2023/01/03 05:48:58;;;;;;;17.75;10.80;;;4.70;99.90;;;;;;4964665;28;20049;-78
2023/01/03 05:51:24;;;;;;;18.58;11.23;;;3.10;99.90;;;;;;5013653;28;20084;-78
2023/01/03 05:53:50;;;;;;;26.70;11.32;;;3.10;99.90;;;;;;4955855;28;20046;-77
2023/01/03 05:56:16;;;;;;;17.40;10.32;;;1.80;99.90;;;;;;4981040;28;20061;-77
2023/01/03 05:58:42;;;;;;;17.35;11.40;;;3.10;99.90;;;;;;4990455;28;20038;-77
2023/01/03 06:01:09;;;;;;;20.88;12.63;;;4.60;99.90;;;;;;4980112;28;20050;-77
2023/01/03 06:03:35;;;;;;;20.17;12.20;;;3.20;99.90;;;;;;4964907;28;20046;-77
2023/01/03 06:06:05;;;;;;;23.35;12.05;;;3.20;99.90;;;;;;4963842;28;20089;-77
2023/01/03 06:08:32;;;;;;;21.50;12.02;;;3.10;99.90;;;;;;4984978;28;20089;-78
2023/01/03 06:10:57;;;;;;;20.20;12.20;;;3.10;99.90;;;;;;4991818;28;20123;-77
2023/01/03 06:13:24;;;;;;;21.13;13.50;;;4.60;99.90;;;;;;4980401;28;20486;-77
2023/01/03 06:17:53;;;;;;;26.13;13.52;;;3.10;99.90;;;;;;4980304;28;20403;-77
2023/01/03 06:18:36;;;;;;;21.05;14.57;;;4.00;99.90;;;;;;4989915;28;20050;-77
2023/01/03 06:21:03;;;;;;;21.27;13.93;;;3.10;99.90;;;;;;4963122;28;20099;-77
2023/01/03 06:23:29;;;;;;;20.55;14.13;;;3.00;99.90;;;;;;4980471;28;20049;-77
2023/01/03 06:25:54;;;;;;;25.00;15.27;;;3.00;99.90;;;;;;5012871;28;20050;-77
2023/01/03 06:28:20;;;;;;;21.83;14.23;;;3.00;99.90;;;;;;4979297;28;20034;-77
2023/01/03 06:30:45;;;;;;;24.10;14.90;;;3.10;99.90;;;;;;4990093;28;20113;-77
2023/01/03 06:33:11;;;;;;;20.83;15.38;;;3.10;99.90;;;;;;4963854;28;20525;-77
2023/01/03 06:35:37;;;;;;;24.50;15.43;;;3.10;99.90;;;;;;4989443;28;20805;-77
2023/01/03 06:38:03;;;;;;;22.67;14.82;;;3.20;99.90;;;;;;4963626;28;20073;-77
2023/01/03 06:40:29;;;;;;;24.33;14.80;;;3.00;99.90;;;;;;4980640;28;20282;-77
2023/01/03 06:42:54;;;;;;;24.45;15.32;;;3.00;99.90;;;;;;4979521;28;20046;-77
2023/01/03 06:53:40;;;;;;;25.20;14.68;;;2.90;99.90;;;;;;5012650;28;19922;-77
2023/01/03 06:56:06;;;;;;;25.88;15.40;;;2.90;99.90;;;;;;4995039;28;20125;-77
2023/01/03 06:58:32;;;;;;;22.45;14.25;;;2.80;99.90;;;;;;4996084;28;20039;-77
2023/01/03 07:01:01;;;;;;;19.90;14.25;;;2.70;99.90;;;;;;4979589;28;20573;-78
2023/01/03 07:03:27;;;;;;;25.67;14.68;;;2.70;99.90;;;;;;5012227;28;20070;-77
2023/01/03 07:05:52;;;;;;;22.70;15.18;;;4.10;99.90;;;;;;4995929;28;20081;-78
2023/01/03 07:08:18;;;;;;;24.65;16.10;;;4.20;99.90;;;;;;4995665;28;20085;-78
2023/01/03 07:10:44;;;;;;;22.33;14.95;;;2.70;99.90;;;;;;4988553;28;20034;-77
2023/01/03 07:15:53;;;;;;;22.48;15.60;;;2.60;99.90;;;;;;4988835;28;20081;-77
2023/01/03 07:18:19;;;;;;;22.40;14.63;;;2.60;99.90;;;;;;4962876;28;20085;-77
2023/01/03 07:20:45;;;;;;;19.98;14.32;;;2.60;99.90;;;;;;4988935;28;20100;-77
2023/01/03 07:23:11;;;;;;;20.55;14.30;;;2.50;99.90;;;;;;4994813;28;20045;-78
2023/01/03 07:25:40;;;;;;;23.48;15.05;;;3.10;99.90;;;;;;4660771;28;9999796;-77
2023/01/03 07:28:10;;;;;;;23.90;13.93;;;4.20;99.90;;;;;;4990028;28;20050;-79
2023/01/03 07:30:38;;;;;;;27.88;15.02;;;2.50;99.90;;;;;;5000828;28;20049;-77
2023/01/03 07:33:04;;;;;;;24.75;14.77;;;4.10;99.90;;;;;;4970869;28;20072;-78
2023/01/03 07:35:34;;;;;;;25.77;15.23;;;2.40;99.90;;;;;;4971430;28;20096;-78
2023/01/03 07:37:59;;;;;;;27.67;13.95;;;2.70;99.90;;;;;;4953512;28;20439;-78
2023/01/03 07:40:25;;;;;;;21.50;13.82;;;2.40;99.90;;;;;;4988720;28;20053;-76
2023/01/03 07:45:39;;;;;;;21.20;13.27;;;2.30;99.90;;;;;;5003041;28;20420;-79
2023/01/03 07:48:05;;;;;;;23.17;13.90;;;2.40;99.90;;;;;;5001674;28;20058;-78
2023/01/03 07:50:31;;;;;;;20.80;14.50;;;3.80;99.90;;;;;;4990863;28;20036;-78
2023/01/03 07:52:56;;;;;;;21.85;14.15;;;2.30;99.90;;;;;;4990450;28;20442;-80
2023/01/03 07:55:22;;;;;;;19.00;12.73;;;4.00;99.90;;;;;;5003343;28;20054;-80
2023/01/03 07:57:47;;;;;;;23.00;13.98;;;2.30;99.90;;;;;;4971930;28;20085;-79
2023/01/03 08:00:13;;;;;;;19.77;12.82;;;2.30;99.90;;;;;;4973688;28;20039;-79
2023/01/03 08:02:39;;;;;;;26.27;20.95;;;2.30;99.90;;;;;;4972225;28;20108;-79
2023/01/03 08:05:05;;;;;;;50.00;29.73;;;2.30;99.90;;;;;;5008237;28;20038;-80
2023/01/03 08:07:31;;;;;;;20.80;14.35;;;2.30;99.90;;;;;;4976482;28;20081;-78
2023/01/03 08:13:25;;;;;;;20.45;14.23;;;2.30;99.90;;;;;;4975574;28;20039;-81
2023/01/03 08:15:26;;;;;;;22.88;13.73;;;2.20;99.90;;;;;;5000944;28;20065;-78
2023/01/03 08:17:52;;;;;;;19.38;11.98;;;2.20;99.90;;;;;;5013579;28;20050;-77
2023/01/03 08:20:17;;;;;;;20.13;13.20;;;2.20;99.90;;;;;;4998430;28;20077;-78
2023/01/03 08:22:43;;;;;;;22.35;12.90;;;3.70;99.90;;;;;;4999934;28;20041;-77
2023/01/03 08:25:09;;;;;;;21.35;12.93;;;2.10;99.90;;;;;;4982404;28;20125;-78
2023/01/03 08:27:34;;;;;;;17.27;12.55;;;3.00;99.90;;;;;;4982076;28;20061;-79
2023/01/03 08:30:00;;;;;;;21.08;13.88;;;2.20;99.90;;;;;;4982642;28;20042;-79
2023/01/03 08:32:26;;;;;;;19.42;13.18;;;2.20;99.90;;;;;;5016039;28;20057;-80
2023/01/03 08:34:53;;;;;;;19.67;13.27;;;2.10;99.90;;;;;;4998223;28;20050;-79
2023/01/03 08:37:19;;;;;;;23.73;13.93;;;2.20;99.90;;;;;;5006728;28;20051;-77
2023/01/03 08:39:52;;;;;;;21.20;14.68;;;4.20;99.90;;;;;;4966641;28;20049;-78
2023/01/03 08:42:22;;;;;;;19.58;14.23;;;2.20;99.90;;;;;;5014285;28;20514;-79
2023/01/03 08:44:52;;;;;;;20.27;14.75;;;2.10;99.90;;;;;;5007174;28;20054;-78
2023/01/03 08:47:19;;;;;;;21.05;14.88;;;1.30;99.90;;;;;;4966244;28;20047;-77
2023/01/03 08:49:45;;;;;;;22.90;16.00;;;2.30;99.90;;;;;;4965827;28;20042;-78
2023/01/03 08:52:10;;;;;;;23.27;15.63;;;2.20;99.90;;;;;;5014789;28;20069;-78
2023/01/03 08:54:38;;;;;;;22.42;15.63;;;2.10;99.90;;;;;;4982156;28;20042;-78
2023/01/03 08:57:06;;;;;;;22.95;16.65;;;4.10;99.90;;;;;;4982288;28;20046;-79
2023/01/03 08:59:32;;;;;;;22.98;14.82;;;2.00;99.90;;;;;;4982595;28;20046;-78
2023/01/03 09:01:58;;;;;;;19.38;14.18;;;2.20;99.90;;;;;;5014298;28;20046;-78
2023/01/03 09:04:24;;;;;;;19.77;14.93;;;2.10;99.90;;;;;;4965468;28;20035;-78
2023/01/03 09:06:50;;;;;;;16.50;13.60;;;3.40;99.90;;;;;;4982706;28;20047;-78
2023/01/03 09:09:15;;;;;;;16.65;12.52;;;2.00;99.90;;;;;;4981440;28;20038;-79
2023/01/03 09:11:41;;;;;;;16.38;12.15;;;2.00;99.90;;;;;;4966401;28;20610;-78
2023/01/03 09:14:07;;;;;;;21.67;13.48;;;1.90;99.90;;;;;;4980573;28;20431;-78
2023/01/03 09:16:32;;;;;;;14.80;12.13;;;1.80;99.90;;;;;;4990646;28;20097;-78
2023/01/03 09:18:58;;;;;;;21.08;11.45;;;1.80;99.90;;;;;;4965540;28;20136;-79
2023/01/03 09:21:24;;;;;;;23.88;12.13;;;1.80;99.90;;;;;;4965668;28;20089;-78
2023/01/03 09:23:50;;;;;;;29.33;12.63;;;3.50;99.90;;;;;;4964953;28;20108;-78
2023/01/03 09:26:15;;;;;;;26.70;11.57;;;1.80;99.90;;;;;;4965668;28;20086;-79
2023/01/03 09:28:41;;;;;;;27.48;11.98;;;1.60;99.90;;;;;;4982430;28;20069;-78
2023/01/03 09:31:07;;;;;;;24.30;13.05;;;1.80;99.90;;;;;;4965001;28;20526;-78
2023/01/03 09:33:32;;;;;;;27.05;12.43;;;3.10;99.90;;;;;;4992312;28;20050;-78
2023/01/03 09:35:58;;;;;;;26.23;13.52;;;1.80;99.90;;;;;;4991279;28;20074;-78
2023/01/03 09:38:24;;;;;;;33.45;14.15;;;3.30;99.90;;;;;;4980683;28;20500;-78
2023/01/03 09:41:02;;;;;;;32.08;14.55;;;3.50;99.90;;;;;;4965955;28;20045;-78
2023/01/03 09:43:40;;;;;;;41.03;16.60;;;1.80;99.90;;;;;;5014545;28;20077;-78
2023/01/03 09:46:29;;;;;;;45.67;15.63;;;1.90;99.90;;;;;;4980163;28;20057;-78
2023/01/03 09:48:56;;;;;;;35.22;15.30;;;1.90;99.90;;;;;;4990583;28;20077;-77
2023/01/03 10:06:09;;;;;;;44.40;17.48;;;2.20;99.90;;;;;;5012998;28;20047;-79
2023/01/03 10:08:54;;;;;;;41.05;18.13;;;2.30;99.90;;;;;;4966007;28;20103;-78
2023/01/03 10:11:38;;;;;;;54.28;19.30;;;2.40;99.90;;;;;;4964792;28;20069;-79
2023/01/03 10:14:13;;;;;;;37.30;18.83;;;2.40;99.90;;;;;;4980000;28;20050;-78
2023/01/03 10:16:46;;;;;;;;;;;2.50;99.90;;;;;;4982067;28;20086;-78
2023/01/03 10:19:38;;;;;;;43.38;19.60;;;2.50;99.90;;;;;;4979926;28;19992;-79
2023/01/03 10:22:09;;;;;;;38.45;21.20;;;4.30;99.90;;;;;;4983676;28;20061;-78
2023/01/03 10:24:45;;;;;;;74.22;23.55;;;2.60;99.90;;;;;;4990279;28;20125;-79
2023/01/03 10:27:16;;;;;;;52.25;23.50;;;2.70;99.90;;;;;;4963110;28;20073;-79
2023/01/03 10:29:44;;;;;;;42.80;24.02;;;2.70;99.90;;;;;;5013498;28;20383;-79
2023/01/03 10:32:28;;;;;;;60.80;24.30;;;4.80;99.90;;;;;;4964227;28;20424;-77
2023/01/03 10:35:23;;;;;;;41.35;23.60;;;2.80;99.90;;;;;;5004180;28;20126;-79
2023/01/03 10:37:51;;;;;;;52.17;24.05;;;2.90;99.90;;;;;;4989937;28;20394;-78
2023/01/03 10:40:17;;;;;;;56.97;25.13;;;2.90;99.90;;;;;;4988933;28;20272;-78
2023/01/03 10:42:44;;;;;;;55.90;25.98;;;3.00;99.90;;;;;;4980548;28;20104;-78
2023/01/03 10:45:10;;;;;;;51.30;26.77;;;3.00;99.90;;;;;;4995678;28;20050;-78
2023/01/03 10:47:35;;;;;;;54.28;26.15;;;3.10;99.90;;;;;;4979934;28;20415;-78
2023/01/03 10:50:04;;;;;;;53.33;27.25;;;3.10;99.90;;;;;;4980126;28;20026;-78
2023/01/03 10:52:38;;;;;;;56.70;27.08;;;3.10;99.90;;;;;;4989884;28;20050;-78
2023/01/03 10:55:17;;;;;;;51.40;27.13;;;3.50;99.90;;;;;;5011816;28;20042;-78
2023/01/03 10:57:58;;;;;;;51.92;27.80;;;4.60;99.90;;;;;;4996655;28;20122;-78
2023/01/03 11:00:34;;;;;;;56.90;30.23;;;3.30;99.90;;;;;;4990212;28;20051;-78
2023/01/03 11:03:08;;;;;;;59.38;31.85;;;3.40;99.90;;;;;;4988603;28;20482;-78
2023/01/03 11:05:35;;;;;;;54.33;29.17;;;3.40;99.90;;;;;;4985585;28;20101;-79
2023/01/03 11:08:03;;;;;;;63.15;31.73;;;3.50;99.90;;;;;;4995545;28;20046;-78
2023/01/03 11:10:58;;;;;;;61.95;31.63;;;4.80;99.90;;;;;;5012412;28;20106;-79
2023/01/03 11:13:41;;;;;;;62.33;30.35;;;3.60;99.90;;;;;;4976536;28;20050;-78
2023/01/03 11:16:18;;;;;;;70.50;33.20;;;3.70;99.90;;;;;;4988744;28;20097;-78
2023/01/03 11:19:04;;;;;;;70.35;32.53;;;3.70;99.90;;;;;;4996151;28;20044;-80
2023/01/03 11:21:44;;;;;;;65.43;30.55;;;3.80;99.90;;;;;;4981002;28;20046;-78
2023/01/03 11:24:28;;;;;;;64.95;33.33;;;3.80;99.90;;;;;;4972225;28;20085;-78
2023/01/03 11:27:33;;;;;;;63.90;31.98;;;3.90;99.90;;;;;;5012556;28;20487;-78
2023/01/03 11:30:21;;;;;;;65.45;33.78;;;4.00;99.90;;;;;;4996088;28;20548;-78
2023/01/03 11:33:04;;;;;;;69.93;33.58;;;4.00;99.90;;;;;;4980064;28;20195;-79
2023/01/03 11:35:52;;;;;;;63.17;31.88;;;5.10;99.90;;;;;;4979768;28;20077;-78
2023/01/03 11:38:55;;;;;;;68.63;33.53;;;4.10;99.90;;;;;;5005447;28;20042;-79
2023/01/03 11:41:31;;;;;;;66.00;34.28;;;4.10;99.90;;;;;;4979496;28;20078;-79
2023/01/03 11:44:34;;;;;;;68.32;33.20;;;4.40;99.90;;;;;;4978452;28;20395;-79
2023/01/03 11:47:28;;;;;;;65.22;33.67;;;4.30;99.90;;;;;;4997253;28;20050;-79
2023/01/03 11:50:23;;;;;;;67.43;33.20;;;4.30;99.90;;;;;;5014607;28;20172;-79
2023/01/03 11:53:03;;;;;;;65.30;33.15;;;4.40;99.90;;;;;;4981564;28;20390;-79
2023/01/03 11:55:39;;;;;;;67.28;34.25;;;4.50;99.90;;;;;;5012425;28;20070;-79
2023/01/03 11:58:15;;;;;;;68.10;34.67;;;6.00;99.90;;;;;;5003332;28;20132;-79
2023/01/03 12:00:57;;;;;;;70.28;34.58;;;4.60;99.90;;;;;;4980234;28;20174;-80
2023/01/03 12:03:55;;;;;;;63.50;33.70;;;4.60;99.90;;;;;;4980219;28;20053;-79
2023/01/03 12:06:24;;;;;;;65.25;33.78;;;4.70;99.90;;;;;;4966723;28;20056;-78
2023/01/03 12:09:10;;;;;;;62.30;33.22;;;4.70;99.90;;;;;;5015293;28;20103;-79
2023/01/03 12:11:50;;;;;;;62.83;32.97;;;4.80;99.90;;;;;;5014793;28;20080;-80
2023/01/03 12:14:30;;;;;;;65.63;33.40;;;4.80;99.90;;;;;;4975702;28;20093;-79
2023/01/03 12:17:03;;;;;;;62.67;32.80;;;4.80;99.90;;;;;;4963442;28;20096;-80
2023/01/03 12:19:45;;;;;;;60.13;32.22;;;4.90;99.90;;;;;;4998988;28;20040;-78
2023/01/03 12:22:25;;;;;;;64.95;32.40;;;4.90;99.90;;;;;;4979107;28;20042;-79
2023/01/03 12:25:01;;;;;;;60.30;31.23;;;4.90;99.90;;;;;;4996086;28;20046;-78
2023/01/03 12:27:34;;;;;;;60.33;30.92;;;5.00;99.90;;;;;;4998975;28;20041;-79
2023/01/03 12:30:27;;;;;;;67.00;32.00;;;5.00;99.90;;;;;;4979796;28;20050;-79
2023/01/03 12:33:22;;;;;;;59.17;30.10;;;5.10;99.90;;;;;;4993850;28;20089;-79
2023/01/03 12:36:02;;;;;;;52.85;27.73;;;6.60;99.90;;;;;;4975479;28;20105;-78
2023/01/03 12:38:36;;;;;;;53.63;28.92;;;5.20;99.90;;;;;;5011646;28;20046;-78
2023/01/03 12:41:12;;;;;;;56.47;28.67;;;6.00;99.90;;;;;;4997401;28;20041;-79
2023/01/03 12:43:47;;;;;;;56.33;29.73;;;5.20;99.90;;;;;;5000101;28;20038;-78
2023/01/03 12:46:18;;;;;;;47.95;26.73;;;5.30;99.90;;;;;;5002415;28;20526;-79
2023/01/03 12:48:57;;;;;;;70.50;45.38;;;4.60;99.90;;;;;;4975761;28;20102;-79
2023/01/03 12:51:23;;;;;;;57.42;28.27;;;5.30;99.90;;;;;;4998146;28;20042;-79
2023/01/03 12:53:53;;;;;;;48.38;25.77;;;5.40;99.90;;;;;;5014452;28;20055;-80
2023/01/03 12:56:51;;;;;;;44.13;24.65;;;6.10;99.90;;;;;;4990714;28;20034;-79
2023/01/03 12:59:52;;;;;;;43.30;23.27;;;5.50;99.90;;;;;;5006384;28;20108;-79
2023/01/03 13:02:26;;;;;;;43.90;22.92;;;5.50;99.90;;;;;;5007077;28;20052;-79
2023/01/03 13:04:57;;;;;;;39.28;21.45;;;5.50;99.90;;;;;;5013339;28;20038;-80
2023/01/03 13:07:29;;;;;;;37.72;21.33;;;5.50;99.90;;;;;;4989767;28;20042;-79
2023/01/03 13:10:08;;;;;;;36.65;19.70;;;7.10;99.90;;;;;;5013857;28;20046;-80
2023/01/03 13:12:38;;;;;;;36.33;20.80;;;5.60;99.90;;;;;;4990725;28;20274;-79
2023/01/03 13:15:21;;;;;;;36.63;20.65;;;5.60;99.90;;;;;;4979855;28;20077;-79
2023/01/03 13:17:48;;;;;;;38.27;19.93;;;5.70;99.90;;;;;;4990298;28;20034;-80
2023/01/03 13:20:26;;;;;;;38.80;21.85;;;5.70;99.90;;;;;;4980080;28;20290;-80
2023/01/03 13:22:53;;;;;;;37.92;20.02;;;5.70;99.90;;;;;;5013357;28;20054;-80
2023/01/03 13:25:40;;;;;;;27.70;17.88;;;6.50;99.90;;;;;;4990548;28;20043;-79
2023/01/03 13:28:18;;;;;;;31.70;17.27;;;5.80;99.90;;;;;;4989357;28;20042;-79
2023/01/03 13:30:45;;;;;;;30.30;19.08;;;5.80;99.90;;;;;;4990549;28;20366;-79
2023/01/03 13:33:10;;;;;;;32.05;17.17;;;5.80;99.90;;;;;;4979698;28;20081;-79
2023/01/03 13:35:56;;;;;;;32.35;19.20;;;6.90;99.90;;;;;;5012837;28;20047;-80
2023/01/03 13:38:29;;;;;;;34.63;18.63;;;5.90;99.90;;;;;;4982987;28;20694;-79
2023/01/03 13:41:08;;;;;;;32.50;19.17;;;5.90;99.90;;;;;;4980480;28;20038;-79
2023/01/03 13:43:35;;;;;;;31.10;19.02;;;5.90;99.90;;;;;;5005051;28;20082;-80
2023/01/03 13:46:21;;;;;;;28.27;18.23;;;5.90;99.90;;;;;;4954135;28;1045944;-79
2023/01/03 13:48:58;;;;;;;36.45;19.88;;;6.00;99.90;;;;;;5013605;28;20046;-80
2023/01/03 13:51:25;;;;;;;33.15;18.25;;;6.00;99.90;;;;;;4997549;28;20049;-79
2023/01/03 13:54:04;;;;;;;27.88;16.65;;;5.90;99.90;;;;;;4981245;28;20058;-79
2023/01/03 13:56:42;;;;;;;30.42;18.92;;;6.00;99.90;;;;;;4962642;28;20042;-79
2023/01/03 13:59:13;;;;;;;32.53;18.50;;;6.00;99.90;;;;;;4980829;28;20069;-79
2023/01/03 14:02:10;;;;;;;31.52;17.17;;;6.00;99.90;;;;;;4996919;28;20131;-79
2023/01/03 14:04:57;;;;;;;34.72;17.38;;;6.00;99.90;;;;;;4984790;28;20042;-79
2023/01/03 14:07:51;;;;;;;32.25;17.75;;;6.10;99.90;;;;;;4990137;28;20038;-79
2023/01/03 14:10:50;;;;;;;37.53;18.80;;;6.10;99.90;;;;;;5013209;28;20117;-79